Time;durP1;ratioP1;P1;durP2;ratioP2;P2;SDS_P1;SDS_P2;PMS_P1;PMS_P2;Temp;Humidity;BMP_temperature;BMP_pressure;BME280_temperature;BME280_humidity;BME280_pressure;Samples;Min_cycle;Max_cycle;Signal;HPM_P1;HPM_P2
2022/01/18 00:03:42;;;;;;;29.45;14.88;;;;;;;2.45;100.00;100198.38;10374382;28;20074;-77
2022/01/18 00:08:44;;;;;;;29.00;15.73;;;;;;;2.35;100.00;100206.03;10351063;28;20101;-77
2022/01/18 00:13:48;;;;;;;27.48;14.32;;;;;;;2.08;100.00;100200.22;10331984;28;20058;-76
2022/01/18 00:18:51;;;;;;;28.40;13.88;;;;;;;1.83;100.00;100218.81;10331208;28;20084;-77
2022/01/18 00:23:56;;;;;;;33.53;15.17;;;;;;;1.93;100.00;100226.28;10326591;28;20051;-77
2022/01/18 00:29:05;;;;;;;30.08;14.82;;;;;;;2.05;100.00;100229.81;10327369;28;20112;-77
2022/01/18 00:34:17;;;;;;;30.10;14.98;;;;;;;2.04;100.00;100251.22;10311864;28;20062;-78
2022/01/18 00:39:26;;;;;;;29.17;15.55;;;;;;;2.09;100.00;100246.06;10320102;28;20057;-78
2022/01/18 00:44:29;;;;;;;27.92;13.10;;;;;;;2.10;100.00;100253.78;10339654;28;20113;-78
2022/01/18 00:49:31;;;;;;;25.40;12.45;;;;;;;2.16;100.00;100265.34;10335839;28;20046;-77
2022/01/18 00:54:40;;;;;;;27.30;13.63;;;;;;;2.11;100.00;100268.69;10305392;28;20065;-77
2022/01/18 00:59:46;;;;;;;27.63;13.45;;;;;;;2.04;100.00;100277.69;10310187;28;20062;-77
2022/01/18 01:04:49;;;;;;;27.33;13.57;;;;;;;2.02;100.00;100293.81;10328677;28;20557;-76
2022/01/18 01:09:51;;;;;;;21.83;11.13;;;;;;;1.98;100.00;100292.63;10314349;28;20480;-76
2022/01/18 01:14:53;;;;;;;25.80;12.82;;;;;;;2.14;100.00;100285.97;10310104;28;20145;-75
2022/01/18 01:32:13;;;;;;;25.10;11.80;;;;;;;2.21;100.00;100286.72;10317480;28;20145;-77
2022/01/18 01:36:13;;;;;;;22.92;11.95;;;;;;;2.22;100.00;100301.56;10315821;28;20054;-77
2022/01/18 01:46:35;;;;;;;24.58;11.75;;;;;;;2.26;100.00;100297.44;10323363;28;20081;-75
2022/01/18 01:51:36;;;;;;;25.17;11.77;;;;;;;2.20;100.00;100315.03;10305307;28;20506;-75
2022/01/18 01:56:36;;;;;;;24.25;11.00;;;;;;;2.16;100.00;100305.91;10320539;28;20050;-76
2022/01/18 02:01:48;;;;;;;17.85;9.77;;;;;;;2.10;100.00;100308.59;10323081;28;20045;-76
2022/01/18 02:06:51;;;;;;;22.93;10.07;;;;;;;2.06;100.00;100302.94;10332450;28;20145;-74
2022/01/18 02:11:55;;;;;;;24.92;10.60;;;;;;;2.18;100.00;100303.84;10319315;28;20054;-75
2022/01/18 02:22:19;;;;;;;19.33;8.45;;;;;;;2.26;100.00;100306.22;10339677;28;20077;-76
2022/01/18 02:27:19;;;;;;;21.05;8.52;;;;;;;2.18;100.00;100290.59;10336570;28;20054;-75
2022/01/18 02:32:20;;;;;;;16.58;7.70;;;;;;;2.20;100.00;100287.75;10335417;28;20046;-76
2022/01/18 02:37:20;;;;;;;18.10;7.57;;;;;;;2.23;100.00;100289.94;10321803;28;20047;-77
2022/01/18 02:42:27;;;;;;;18.85;7.38;;;;;;;2.22;100.00;100280.38;10318755;28;20050;-75
2022/01/18 02:47:27;;;;;;;14.73;7.50;;;;;;;2.25;100.00;100277.28;10307554;28;20061;-75
2022/01/18 02:52:29;;;;;;;16.50;6.93;;;;;;;2.15;100.00;100275.13;10287081;28;20053;-76
2022/01/18 02:57:31;;;;;;;15.82;7.72;;;;;;;2.08;100.00;100289.47;10303864;28;20051;-75
2022/01/18 03:07:51;;;;;;;14.30;6.72;;;;;;;2.11;100.00;100294.34;10293304;28;20047;-77
2022/01/18 03:12:51;;;;;;;16.40;7.50;;;;;;;2.09;100.00;100286.59;10310200;28;20510;-78
2022/01/18 03:17:53;;;;;;;20.63;7.53;;;;;;;2.09;100.00;100291.09;10276296;28;20054;-77
2022/01/18 03:22:54;;;;;;;13.27;6.60;;;;;;;2.08;100.00;100303.53;10281553;28;20443;-77
2022/01/18 03:28:06;;;;;;;13.13;5.78;;;;;;;1.99;100.00;100307.47;10307405;28;20050;-79
2022/01/18 03:33:15;;;;;;;14.65;5.85;;;;;;;1.95;100.00;100315.06;10287566;28;20067;-78
2022/01/18 03:38:18;;;;;;;13.90;5.38;;;;;;;1.98;100.00;100316.44;10272099;28;20047;-77
2022/01/18 03:43:19;;;;;;;24.95;7.63;;;;;;;1.93;100.00;100313.66;10270962;28;20047;-78
2022/01/18 03:48:49;;;;;;;13.18;5.53;;;;;;;1.85;100.00;100314.72;10237231;28;20486;-78
2022/01/18 03:53:44;;;;;;;13.60;6.07;;;;;;;1.84;100.00;100318.41;10290132;28;20055;-77
2022/01/18 03:58:45;;;;;;;16.27;6.35;;;;;;;1.90;100.00;100317.53;10277051;28;20046;-76
2022/01/18 04:03:47;;;;;;;15.35;6.95;;;;;;;1.92;100.00;100323.44;10270444;28;20055;-76
2022/01/18 04:08:47;;;;;;;15.73;6.00;;;;;;;1.93;100.00;100313.66;10277499;28;20048;-76
2022/01/18 04:13:48;;;;;;;10.52;5.43;;;;;;;1.78;100.00;100311.31;10272818;28;20050;-77
2022/01/18 04:18:56;;;;;;;12.90;6.03;;;;;;;1.78;100.00;100323.75;10307227;28;20134;-76
2022/01/18 04:29:18;;;;;;;13.75;6.05;;;;;;;1.92;100.00;100317.28;10272341;28;20101;-76
2022/01/18 04:34:19;;;;;;;16.00;6.03;;;;;;;1.91;100.00;100308.53;10270814;28;20058;-78
2022/01/18 04:39:19;;;;;;;15.57;6.60;;;;;;;1.84;100.00;100320.25;10261492;28;20050;-78
2022/01/18 04:49:40;;;;;;;18.60;6.97;;;;;;;1.80;100.00;100330.44;10285887;28;20053;-78
2022/01/18 04:54:44;;;;;;;15.43;6.85;;;;;;;1.82;100.00;100323.06;10272860;28;20043;-77
2022/01/18 04:59:44;;;;;;;16.92;7.03;;;;;;;1.72;100.00;100333.34;10273098;28;20134;-78
2022/01/18 05:04:45;;;;;;;19.00;7.18;;;;;;;1.85;100.00;100351.78;10278119;28;20057;-77
2022/01/18 05:09:49;;;;;;;20.55;8.57;;;;;;;1.93;100.00;100356.81;10262589;28;20127;-75
2022/01/18 05:14:53;;;;;;;19.85;8.27;;;;;;;1.96;100.00;100348.44;10263505;28;20082;-77
2022/01/18 05:25:36;;;;;;;20.00;8.45;;;;;;;2.12;100.00;100352.41;10195118;29;20364;-76
2022/01/18 05:30:36;;;;;;;22.63;10.05;;;;;;;2.01;100.00;100358.38;10289368;28;20481;-78
2022/01/18 05:35:39;;;;;;;27.42;10.70;;;;;;;2.00;100.00;100367.34;10316574;28;20056;-76
2022/01/18 05:40:41;;;;;;;25.02;11.38;;;;;;;2.07;100.00;100383.19;10310571;28;20532;-77
2022/01/18 05:45:43;;;;;;;19.90;9.43;;;;;;;2.04;100.00;100379.16;10324870;28;20486;-77
2022/01/18 05:50:44;;;;;;;23.50;11.13;;;;;;;1.95;100.00;100388.38;10323482;28;20054;-77
2022/01/18 05:55:45;;;;;;;27.95;12.40;;;;;;;2.02;100.00;100398.94;10296349;28;20622;-77
2022/01/18 06:00:52;;;;;;;30.95;14.43;;;;;;;2.07;100.00;100393.78;10322628;28;20062;-76
2022/01/18 06:11:17;;;;;;;30.30;12.30;;;;;;;2.17;100.00;100410.00;10326405;28;20045;-78
2022/01/18 06:16:18;;;;;;;25.52;13.43;;;;;;;2.21;100.00;100409.38;10319031;28;20083;-75
2022/01/18 06:21:25;;;;;;;23.23;11.88;;;;;;;2.19;100.00;100411.41;10300104;28;20098;-76
2022/01/18 06:26:26;;;;;;;25.58;11.75;;;;;;;2.16;100.00;100419.81;10309873;28;20058;-75
2022/01/18 06:31:27;;;;;;;27.50;12.00;;;;;;;2.11;100.00;100414.34;10295765;28;20047;-75
2022/01/18 06:36:29;;;;;;;21.95;11.90;;;;;;;2.15;100.00;100427.97;10295384;28;20053;-76
2022/01/18 06:41:30;;;;;;;20.45;8.93;;;;;;;2.17;100.00;100432.00;10283199;28;20219;-76
2022/01/18 06:46:30;;;;;;;16.65;7.88;;;;;;;2.20;100.00;100441.41;10284844;28;20422;-77
2022/01/18 06:51:33;;;;;;;21.50;8.10;;;;;;;2.23;100.00;100430.34;10301869;28;20093;-76
2022/01/18 06:56:34;;;;;;;13.88;6.93;;;;;;;2.23;100.00;100440.94;10276369;28;20118;-75
2022/01/18 07:01:35;;;;;;;13.35;7.63;;;;;;;2.39;100.00;100452.88;10265735;28;20039;-76
2022/01/18 07:06:35;;;;;;;14.27;6.80;;;;;;;2.34;100.00;100453.50;10271141;28;20043;-75
2022/01/18 07:11:36;;;;;;;18.17;6.90;;;;;;;2.28;100.00;100459.66;10286824;28;20727;-75
2022/01/18 07:16:39;;;;;;;13.38;7.03;;;;;;;2.32;100.00;100462.69;10286813;28;20046;-76
2022/01/18 07:21:39;;;;;;;13.73;5.90;;;;;;;2.27;100.00;100468.63;10280954;28;20079;-76
2022/01/18 07:26:41;;;;;;;14.00;6.03;;;;;;;2.26;100.00;100467.81;10271542;28;20160;-76
2022/01/18 07:31:43;;;;;;;11.38;4.10;;;;;;;2.20;100.00;100479.28;10276849;28;20047;-76
2022/01/18 07:36:46;;;;;;;11.00;4.45;;;;;;;2.20;100.00;100484.59;10269486;28;20050;-75
2022/01/18 07:41:47;;;;;;;12.00;4.40;;;;;;;2.27;100.00;100484.53;10284658;28;20046;-77
2022/01/18 07:46:48;;;;;;;13.77;5.05;;;;;;;2.26;100.00;100483.72;10270977;28;20051;-77
2022/01/18 07:51:48;;;;;;;10.30;4.30;;;;;;;2.38;100.00;100504.22;10282937;28;20065;-75
2022/01/18 07:56:49;;;;;;;12.20;3.97;;;;;;;2.44;100.00;100501.53;10273845;28;20101;-76
2022/01/18 08:01:49;;;;;;;7.13;3.05;;;;;;;2.50;100.00;100503.34;10310701;28;20034;-74
2022/01/18 08:06:52;;;;;;;11.52;4.05;;;;;;;2.58;100.00;100506.75;10316936;28;20061;-76
2022/01/18 08:11:54;;;;;;;9.38;3.97;;;;;;;2.65;100.00;100510.97;10311885;28;20057;-77
2022/01/18 08:17:00;;;;;;;13.10;5.28;;;;;;;2.77;100.00;100513.72;10284514;28;20471;-76
2022/01/18 08:22:03;;;;;;;8.93;4.03;;;;;;;2.77;100.00;100506.59;10272091;28;20491;-76
2022/01/18 08:27:07;;;;;;;6.95;3.95;;;;;;;2.77;100.00;100505.78;10327107;28;20054;-75
2022/01/18 08:32:09;;;;;;;12.10;4.45;;;;;;;2.63;100.00;100510.38;10324487;28;20115;-75
2022/01/18 08:37:11;;;;;;;13.07;4.57;;;;;;;2.55;100.00;100514.09;10267158;28;20054;-76
2022/01/18 08:42:15;;;;;;;12.98;4.70;;;;;;;2.68;100.00;100517.69;10272013;28;20612;-76
2022/01/18 08:47:17;;;;;;;12.02;5.50;;;;;;;2.85;100.00;100522.22;10269457;28;20053;-77
2022/01/18 08:52:19;;;;;;;11.30;4.83;;;;;;;2.73;100.00;100517.84;10275313;28;20051;-76
2022/01/18 08:57:20;;;;;;;10.40;4.88;;;;;;;2.71;100.00;100523.34;10259815;28;20066;-76
2022/01/18 09:02:24;;;;;;;11.18;4.32;;;;;;;2.81;100.00;100523.69;10274961;28;20043;-75
2022/01/18 09:07:25;;;;;;;11.38;4.78;;;;;;;3.17;100.00;100521.34;10268318;28;20059;-76
2022/01/18 09:12:26;;;;;;;7.53;3.78;;;;;;;3.28;100.00;100517.94;10288974;28;20049;-76
2022/01/18 09:17:33;;;;;;;10.30;4.15;;;;;;;3.63;100.00;100516.34;10303093;28;20046;-76
2022/01/18 09:22:41;;;;;;;8.27;4.40;;;;;;;4.01;100.00;100525.88;10314254;28;20533;-76
2022/01/18 09:27:41;;;;;;;11.63;4.13;;;;;;;4.05;100.00;100520.94;10300045;28;20060;-77
2022/01/18 09:32:44;;;;;;;10.65;3.72;;;;;;;4.22;100.00;100521.94;10340958;28;20053;-75
2022/01/18 09:37:48;;;;;;;5.67;3.03;;;;;;;4.23;100.00;100516.41;10355666;28;20058;-76
2022/01/18 09:42:57;;;;;;;9.95;3.25;;;;;;;4.22;100.00;100520.09;10342728;28;20035;-77
2022/01/18 09:47:59;;;;;;;8.48;3.75;;;;;;;4.31;100.00;100522.44;10336475;28;20120;-76
2022/01/18 09:53:03;;;;;;;7.53;3.38;;;;;;;4.44;100.00;100528.34;10329409;28;20050;-75
2022/01/18 09:58:06;;;;;;;;;;;;;;;4.51;100.00;100528.28;10323091;28;20089;-77
2022/01/18 10:03:20;;;;;;;10.18;4.10;;;;;;;4.63;100.00;100537.06;10318508;28;19929;-76
2022/01/18 10:08:22;;;;;;;7.32;2.95;;;;;;;4.40;100.00;100545.00;10323284;28;20512;-74
2022/01/18 10:13:31;;;;;;;8.13;3.33;;;;;;;4.51;100.00;100530.94;10322421;28;20058;-75
2022/01/18 10:18:46;;;;;;;7.28;3.70;;;;;;;4.53;100.00;100537.63;10321292;28;20042;-76
2022/01/18 10:23:49;;;;;;;3.60;2.38;;;;;;;4.88;100.00;100518.28;10308701;28;20045;-76
2022/01/18 10:29:05;;;;;;;2.47;2.13;;;;;;;4.64;100.00;100517.41;10321172;28;20057;-76
2022/01/18 10:34:24;;;;;;;4.93;1.90;;;;;;;4.78;100.00;100513.50;10318188;28;20073;-77
2022/01/18 10:39:28;;;;;;;3.88;2.33;;;;;;;5.20;100.00;100502.75;10308449;28;20414;-77
2022/01/18 10:44:31;;;;;;;3.50;2.03;;;;;;;5.43;100.00;100494.75;10279701;28;20502;-77
2022/01/18 10:49:43;;;;;;;5.10;1.60;;;;;;;5.56;100.00;100499.00;10271830;28;20054;-77
2022/01/18 10:54:47;;;;;;;6.93;2.33;;;;;;;5.53;100.00;100483.50;10274705;28;20055;-77
2022/01/18 10:59:48;;;;;;;;;;;;;;;5.46;100.00;100472.16;10284892;28;20047;-77
2022/01/18 11:04:50;;;;;;;3.95;1.30;;;;;;;5.09;100.00;100482.28;10270925;28;19926;-77
2022/01/18 11:09:51;;;;;;;4.18;1.50;;;;;;;5.49;100.00;100478.88;10280727;28;20514;-76
2022/01/18 11:15:03;;;;;;;2.35;1.00;;;;;;;5.47;100.00;100470.31;10284472;28;20517;-77
2022/01/18 11:20:07;;;;;;;3.78;1.42;;;;;;;5.37;100.00;100460.25;10272451;28;20097;-77
2022/01/18 11:25:10;;;;;;;4.10;1.50;;;;;;;5.14;100.00;100459.25;10283589;28;20696;-78
2022/01/18 11:30:13;;;;;;;3.08;1.30;;;;;;;4.87;100.00;100463.44;10300986;28;20066;-78
2022/01/18 11:35:35;;;;;;;2.47;1.20;;;;;;;4.49;100.00;100470.00;10309682;28;20051;-76
2022/01/18 11:40:50;;;;;;;3.83;1.50;;;;;;;4.39;100.00;100479.56;10284137;28;20054;-77
2022/01/18 11:45:51;;;;;;;3.28;1.80;;;;;;;4.68;100.00;100467.25;10291524;28;20512;-78
2022/01/18 11:51:15;;;;;;;3.65;1.80;;;;;;;5.37;100.00;100470.91;10274590;28;20506;-77
2022/01/18 11:56:34;;;;;;;2.20;1.40;;;;;;;5.45;100.00;100456.41;10298254;28;20051;-77
2022/01/18 12:01:57;;;;;;;3.33;1.20;;;;;;;5.38;100.00;100468.00;10288215;28;20107;-77
2022/01/18 12:06:58;;;;;;;3.83;2.28;;;;;;;5.21;100.00;100472.44;10323611;28;20043;-79
2022/01/18 12:11:59;;;;;;;3.97;1.70;;;;;;;4.69;100.00;100480.31;10297969;28;20050;-77
2022/01/18 12:17:13;;;;;;;5.18;1.98;;;;;;;4.71;100.00;100490.72;10319507;28;20133;-77
2022/01/18 12:22:14;;;;;;;3.15;1.83;;;;;;;4.55;100.00;100478.91;10314634;28;20063;-77
2022/01/18 12:27:32;;;;;;;4.57;1.77;;;;;;;5.50;100.00;100467.19;10270062;28;20051;-78
2022/01/18 12:32:56;;;;;;;3.17;1.60;;;;;;;5.64;100.00;100450.69;10302929;28;20042;-77
2022/01/18 12:37:57;;;;;;;4.25;2.10;;;;;;;6.09;100.00;100439.28;10306173;28;20058;-78
2022/01/18 12:48:09;;;;;;;3.65;1.40;;;;;;;7.44;100.00;100418.56;10312868;28;20085;-80
2022/01/18 12:53:24;;;;;;;1.45;1.05;;;;;;;6.75;100.00;100396.84;10354990;28;20084;-78
2022/01/18 12:58:30;;;;;;;1.85;1.52;;;;;;;6.76;100.00;100401.13;10322066;28;20038;-76
2022/01/18 13:03:40;;;;;;;2.38;1.55;;;;;;;6.22;100.00;100399.00;10324697;28;20050;-78
2022/01/18 13:08:42;;;;;;;1.92;1.48;;;;;;;5.78;100.00;100407.78;10310666;28;20046;-78
2022/01/18 13:13:53;;;;;;;2.03;1.30;;;;;;;5.32;100.00;100407.72;10333843;28;20043;-79
2022/01/18 13:25:02;;;;;;;5.10;1.15;;;;;;;4.39;100.00;100437.00;10300384;28;20047;-77
2022/01/18 13:30:27;;;;;;;2.45;1.10;;;;;;;4.28;100.00;100444.75;10323923;28;20046;-76
2022/01/18 13:35:30;;;;;;;3.60;1.40;;;;;;;4.02;100.00;100453.09;10292568;28;20054;-78
2022/01/18 13:40:32;;;;;;;3.83;1.45;;;;;;;4.03;100.00;100461.91;10287431;28;20055;-77
2022/01/18 13:45:36;;;;;;;1.53;1.10;;;;;;;4.25;100.00;100455.03;10316989;28;20051;-76
2022/01/18 13:50:39;;;;;;;2.15;1.73;;;;;;;4.45;100.00;100452.06;10281923;28;20489;-78
2022/01/18 13:55:51;;;;;;;2.55;1.58;;;;;;;4.56;100.00;100448.59;10279943;28;20065;-77
2022/01/18 14:01:04;;;;;;;3.30;1.65;;;;;;;4.40;100.00;100438.66;10290339;28;20483;-77
2022/01/18 14:06:08;;;;;;;2.17;1.60;;;;;;;4.15;100.00;100437.00;10289899;28;20069;-76
2022/01/18 14:11:15;;;;;;;3.08;1.60;;;;;;;4.36;100.00;100429.50;10282172;28;20047;-76
2022/01/18 14:16:24;;;;;;;3.42;1.90;;;;;;;4.37;100.00;100434.59;10281794;28;20052;-76
2022/01/18 14:21:47;;;;;;;3.35;1.98;;;;;;;4.38;100.00;100430.88;10295946;28;20058;-77
2022/01/18 14:26:53;;;;;;;4.30;1.45;;;;;;;4.39;100.00;100421.91;10320233;28;20078;-77
2022/01/18 14:32:03;;;;;;;2.20;1.60;;;;;;;4.35;100.00;100426.03;10309694;28;20066;-76
2022/01/18 14:37:04;;;;;;;4.07;1.50;;;;;;;4.12;100.00;100426.00;10338559;28;20066;-77
2022/01/18 14:42:06;;;;;;;2.35;1.70;;;;;;;3.97;100.00;100431.72;10354008;28;20061;-77
2022/01/18 14:47:25;;;;;;;2.70;1.20;;;;;;;3.96;100.00;100425.63;10379167;28;20070;-75
2022/01/18 14:52:29;;;;;;;3.45;1.70;;;;;;;3.72;100.00;100430.03;10331430;28;20494;-77
2022/01/18 14:57:31;;;;;;;2.60;1.67;;;;;;;3.64;100.00;100432.19;10319981;28;20039;-78
2022/01/18 15:02:33;;;;;;;2.42;1.63;;;;;;;3.50;100.00;100436.06;10303642;28;20053;-78
2022/01/18 15:07:37;;;;;;;4.20;2.00;;;;;;;3.42;100.00;100442.47;10311112;28;20057;-78
2022/01/18 15:12:43;;;;;;;4.43;2.08;;;;;;;3.49;100.00;100440.56;10303443;28;20090;-78
2022/01/18 15:17:45;;;;;;;4.00;2.25;;;;;;;3.58;100.00;100443.72;10307556;28;20090;-77
2022/01/18 15:22:48;;;;;;;6.57;2.92;;;;;;;3.61;100.00;100446.72;10325148;28;20057;-78
2022/01/18 15:27:50;;;;;;;3.25;2.40;;;;;;;3.61;100.00;100443.25;10308853;28;20085;-78
2022/01/18 15:32:55;;;;;;;3.28;2.55;;;;;;;3.67;100.00;100437.06;10314083;28;20055;-78
2022/01/18 15:37:56;;;;;;;3.25;2.33;;;;;;;3.64;100.00;100446.25;10308838;28;20069;-77
2022/01/18 15:42:58;;;;;;;4.93;2.80;;;;;;;3.65;100.00;100436.44;10284832;28;20054;-79
2022/01/18 15:47:58;;;;;;;3.65;2.75;;;;;;;3.58;100.00;100438.41;10311728;28;20043;-78
2022/01/18 15:52:59;;;;;;;3.72;2.47;;;;;;;3.57;100.00;100434.13;10310954;28;20129;-78
2022/01/18 15:58:02;;;;;;;5.28;3.28;;;;;;;3.61;100.00;100440.59;10314634;28;20065;-77
2022/01/18 16:03:04;;;;;;;3.70;3.10;;;;;;;3.62;100.00;100434.25;10311714;28;20050;-79
2022/01/18 16:08:04;;;;;;;4.55;3.13;;;;;;;3.61;100.00;100445.91;10352825;28;20743;-77
2022/01/18 16:13:05;;;;;;;5.22;3.38;;;;;;;3.54;100.00;100432.72;10351059;28;20046;-79
2022/01/18 16:18:06;;;;;;;5.63;3.30;;;;;;;3.49;100.00;100429.94;10348702;28;20085;-79
2022/01/18 16:23:06;;;;;;;3.97;2.97;;;;;;;3.63;100.00;100434.03;10337847;28;20205;-78
2022/01/18 16:28:08;;;;;;;4.90;3.25;;;;;;;3.66;100.00;100436.25;10320614;28;20096;-80
2022/01/18 16:33:09;;;;;;;8.05;3.85;;;;;;;3.63;100.00;100454.47;10334140;28;20054;-78
2022/01/18 16:38:10;;;;;;;7.55;4.28;;;;;;;3.57;100.00;100456.19;10339500;28;20042;-77
2022/01/18 16:43:10;;;;;;;8.40;5.60;;;;;;;3.60;100.00;100449.59;10313141;28;20050;-79
2022/01/18 16:48:11;;;;;;;6.80;4.00;;;;;;;3.46;100.00;100443.63;10325117;28;20051;-77
2022/01/18 16:53:14;;;;;;;4.63;4.00;;;;;;;3.58;100.00;100452.47;10358748;28;20049;-85
2022/01/18 16:58:17;;;;;;;6.13;3.80;;;;;;;3.55;100.00;100458.22;10331961;28;20047;-77
2022/01/18 17:03:21;;;;;;;7.68;3.85;;;;;;;3.50;100.00;100465.25;10313468;28;20054;-77
2022/01/18 17:08:22;;;;;;;5.13;3.30;;;;;;;3.51;100.00;100459.72;10331751;28;20405;-79
2022/01/18 17:13:23;;;;;;;6.53;4.10;;;;;;;3.51;100.00;100462.38;10334605;28;20105;-78
2022/01/18 17:18:23;;;;;;;7.65;4.80;;;;;;;3.50;100.00;100466.06;10317161;28;20708;-77
2022/01/18 17:23:25;;;;;;;6.28;4.45;;;;;;;3.54;100.00;100469.06;10320238;28;20050;-78
2022/01/18 17:28:26;;;;;;;7.45;4.90;;;;;;;3.51;100.00;100477.50;10312333;28;20050;-79
2022/01/18 17:33:27;;;;;;;7.35;5.60;;;;;;;3.49;100.00;100480.38;10299526;28;20233;-78
2022/01/18 17:38:29;;;;;;;10.30;5.63;;;;;;;3.32;100.00;100472.19;10327967;28;20588;-77
2022/01/18 17:43:30;;;;;;;8.85;5.60;;;;;;;3.38;100.00;100471.31;10315315;28;20070;-78
2022/01/18 17:48:32;;;;;;;9.70;5.90;;;;;;;3.36;100.00;100469.88;10319636;28;20042;-78
2022/01/18 17:53:32;;;;;;;7.43;5.13;;;;;;;3.37;100.00;100471.50;10306401;28;20053;-79
2022/01/18 17:58:33;;;;;;;7.05;5.53;;;;;;;3.42;100.00;100467.16;10322777;28;20070;-78
2022/01/18 18:03:35;;;;;;;9.13;6.45;;;;;;;3.49;100.00;100453.81;10319952;28;20054;-78
2022/01/18 18:08:40;;;;;;;;;;;;;;;3.51;100.00;100450.94;10305962;28;20074;-78
2022/01/18 18:13:43;;;;;;;8.13;5.95;;;;;;;3.48;100.00;100440.78;10328316;28;19933;-79
2022/01/18 18:18:44;;;;;;;;;;;;;;;3.34;100.00;100448.06;10343165;28;20536;-78
2022/01/18 18:23:46;;;;;;;9.77;6.32;;;;;;;3.39;100.00;100443.72;10311560;28;19933;-79
2022/01/18 18:28:47;;;;;;;6.85;5.63;;;;;;;3.41;100.00;100440.84;10329406;28;20057;-79
2022/01/18 18:33:53;;;;;;;8.68;6.28;;;;;;;3.39;100.00;100442.91;10352878;28;20942;-80
2022/01/18 18:38:59;;;;;;;9.30;6.25;;;;;;;3.41;100.00;100436.34;10346057;28;20046;-79
2022/01/18 18:44:13;;;;;;;10.63;7.78;;;;;;;3.25;100.00;100430.81;10342503;28;20054;-78
2022/01/18 18:49:14;;;;;;;8.18;6.68;;;;;;;3.26;100.00;100413.88;10312795;28;20070;-78
2022/01/18 18:54:15;;;;;;;11.30;7.60;;;;;;;3.29;100.00;100416.06;10329231;28;20057;-77
2022/01/18 18:59:29;;;;;;;9.40;7.32;;;;;;;3.28;100.00;100401.19;10326397;28;20101;-78
2022/01/18 19:04:29;;;;;;;12.13;8.57;;;;;;;3.26;100.00;100403.25;10313864;28;20042;-77
2022/01/18 19:09:31;;;;;;;10.43;6.05;;;;;;;3.14;100.00;100405.84;10327906;28;20154;-78
2022/01/18 19:14:35;;;;;;;9.15;5.32;;;;;;;3.18;100.00;100419.47;10322665;28;20050;-77
2022/01/18 19:19:35;;;;;;;;;;;;;;;3.11;100.00;100422.22;10333179;28;20046;-78
2022/01/18 19:24:43;;;;;;;4.05;2.40;;;;;;;3.16;100.00;100424.19;10338656;28;19921;-78
2022/01/18 19:29:44;;;;;;;3.50;2.22;;;;;;;3.17;100.00;100407.25;10334542;28;20114;-78
2022/01/18 19:34:45;;;;;;;3.45;2.72;;;;;;;3.17;100.00;100405.41;10358448;28;20054;-79
2022/01/18 19:39:47;;;;;;;2.67;2.13;;;;;;;3.03;100.00;100395.97;10367229;28;20035;-80
2022/01/18 19:44:49;;;;;;;3.20;2.35;;;;;;;3.08;100.00;100394.25;10370715;28;20046;-78
2022/01/18 19:49:49;;;;;;;2.85;2.10;;;;;;;3.10;100.00;100409.97;10305521;28;20536;-78
2022/01/18 19:54:52;;;;;;;2.72;2.30;;;;;;;3.07;100.00;100395.31;10322165;28;20050;-78
2022/01/18 19:59:56;;;;;;;3.58;2.00;;;;;;;3.00;100.00;100381.28;10336375;28;20074;-77
2022/01/18 20:04:56;;;;;;;4.60;2.13;;;;;;;2.98;100.00;100369.28;10331765;28;20059;-77
2022/01/18 20:09:57;;;;;;;2.47;1.75;;;;;;;2.94;100.00;100363.63;10345760;28;20046;-78
2022/01/18 20:14:59;;;;;;;2.42;1.52;;;;;;;3.00;100.00;100362.72;10336391;28;20058;-78
2022/01/18 20:20:00;;;;;;;3.00;2.08;;;;;;;2.93;100.00;100354.06;10330106;28;20060;-79
2022/01/18 20:25:04;;;;;;;2.40;2.20;;;;;;;3.02;100.00;100343.97;10363061;28;20117;-78
2022/01/18 20:30:16;;;;;;;2.85;2.15;;;;;;;3.04;100.00;100345.34;10345728;28;20069;-78
2022/01/18 20:35:21;;;;;;;2.67;2.47;;;;;;;3.00;100.00;100353.97;10339651;28;20051;-79
2022/01/18 20:40:30;;;;;;;2.47;2.28;;;;;;;2.99;100.00;100353.16;10351351;28;20384;-79
2022/01/18 20:45:52;;;;;;;3.20;2.15;;;;;;;2.95;100.00;100344.03;10336912;28;20057;-77
2022/01/18 20:50:53;;;;;;;2.25;1.70;;;;;;;2.90;100.00;100325.31;10333078;28;20087;-78
2022/01/18 20:55:55;;;;;;;2.70;1.80;;;;;;;2.92;100.00;100309.97;10344322;28;20049;-77
2022/01/18 21:00:59;;;;;;;2.10;1.33;;;;;;;2.99;100.00;100294.78;10309280;28;20046;-79
2022/01/18 21:05:59;;;;;;;2.63;1.90;;;;;;;3.09;100.00;100278.34;10343660;28;20054;-79
2022/01/18 21:11:05;;;;;;;3.05;1.77;;;;;;;2.96;100.00;100279.34;10336727;28;20089;-80
2022/01/18 21:16:05;;;;;;;2.60;1.55;;;;;;;2.89;100.00;100272.50;10351848;28;20050;-80
2022/01/18 21:21:06;;;;;;;1.67;1.50;;;;;;;2.82;100.00;100278.69;10317121;28;20054;-78
2022/01/18 21:26:08;;;;;;;2.03;1.58;;;;;;;2.79;100.00;100294.25;10332818;28;20157;-79
2022/01/18 21:31:08;;;;;;;2.00;1.75;;;;;;;2.77;100.00;100294.47;10338694;28;20129;-82
2022/01/18 21:36:14;;;;;;;1.83;1.50;;;;;;;2.78;100.00;100290.78;10337352;28;20037;-78
2022/01/18 21:41:16;;;;;;;2.58;1.90;;;;;;;2.77;100.00;100297.13;10363582;28;20059;-79
2022/01/18 21:46:18;;;;;;;2.03;1.60;;;;;;;2.92;100.00;100286.09;10336484;28;20087;-77
2022/01/18 21:51:21;;;;;;;3.22;1.95;;;;;;;2.76;100.00;100279.59;10272444;28;20057;-79
2022/01/18 21:56:23;;;;;;;1.95;1.60;;;;;;;2.80;100.00;100296.66;10330050;28;20078;-78
2022/01/18 22:01:28;;;;;;;2.45;1.83;;;;;;;2.78;100.00;100288.13;10349817;28;20048;-80
2022/01/18 22:06:31;;;;;;;4.80;2.90;;;;;;;2.76;100.00;100278.78;10356101;28;20190;-78
2022/01/18 22:11:32;;;;;;;4.93;2.65;;;;;;;2.73;100.00;100274.72;10350636;28;20106;-78
2022/01/18 22:16:33;;;;;;;3.15;1.75;;;;;;;2.68;100.00;100276.44;10347791;28;20069;-80
2022/01/18 22:21:34;;;;;;;3.22;2.10;;;;;;;2.64;100.00;100275.25;10352285;28;20493;-80
2022/01/18 22:26:38;;;;;;;2.45;2.17;;;;;;;2.67;100.00;100272.97;10305774;28;20153;-81
2022/01/18 22:31:40;;;;;;;2.30;1.90;;;;;;;2.82;100.00;100273.38;10329119;28;20122;-81
2022/01/18 22:36:42;;;;;;;4.60;2.17;;;;;;;2.64;100.00;100254.03;10343374;28;20050;-81
2022/01/18 22:41:55;;;;;;;2.25;1.90;;;;;;;2.60;100.00;100251.03;10303719;28;20077;-80
2022/01/18 22:47:01;;;;;;;3.13;2.00;;;;;;;2.65;100.00;100240.56;10328025;28;20042;-81
2022/01/18 22:52:40;;;;;;;2.17;1.80;;;;;;;2.60;100.00;100245.72;10311145;28;20054;-81
2022/01/18 22:57:40;;;;;;;1.80;1.60;;;;;;;2.45;100.00;100245.28;10304053;28;20054;-79
2022/01/18 23:02:42;;;;;;;2.75;1.70;;;;;;;2.51;100.00;100239.09;10319577;28;20038;-78
2022/01/18 23:07:42;;;;;;;2.17;1.40;;;;;;;2.43;100.00;100226.16;10327308;28;20050;-79
2022/01/18 23:12:43;;;;;;;2.42;1.83;;;;;;;2.43;100.00;100226.16;10319585;28;20062;-80
2022/01/18 23:17:45;;;;;;;2.47;1.90;;;;;;;2.38;100.00;100220.69;10342609;28;20050;-78
2022/01/18 23:22:46;;;;;;;2.08;1.67;;;;;;;2.40;100.00;100227.41;10321568;28;20101;-78
2022/01/18 23:27:47;;;;;;;2.70;1.73;;;;;;;2.37;100.00;100221.72;10317740;28;20050;-78
2022/01/18 23:32:48;;;;;;;1.85;1.50;;;;;;;2.30;100.00;100205.13;10310491;28;20117;-79
2022/01/18 23:37:56;;;;;;;1.85;1.50;;;;;;;2.31;100.00;100190.81;10309669;28;20112;-80
2022/01/18 23:42:59;;;;;;;2.17;1.63;;;;;;;2.26;100.00;100183.53;10329448;28;20042;-79
2022/01/18 23:48:00;;;;;;;1.85;1.40;;;;;;;2.16;100.00;100170.81;10314546;28;20107;-77
2022/01/18 23:53:01;;;;;;;2.15;1.25;;;;;;;2.13;100.00;100183.69;10337353;28;20046;-79
2022/01/18 23:58:02;;;;;;;3.17;1.33;;;;;;;2.08;100.00;100171.09;10357139;28;20054;-78
